WetterOnline ( http://www.wetteronline.de )

Wetter aktuell Feuchtwangen

Aktuelles Wetter: Feuchtwangen-Heilbronn (475m)

6-stündlich | Neueste Meldungen
Ortszeit Temperatur Wetter
Di, 17.07. 8:00 16.6° C leicht bewölkt
Di, 17.07. 2:00 12.5° C wolkig
Mo, 16.07. 20:00 21.4° C wolkig
Mo, 16.07. 14:00 22.1° C leicht bewölkt
Mo, 16.07. 8:00 15.7° C bedeckt
Mo, 16.07. 2:00 14.6° C bedeckt
So, 15.07. 20:00 20.5° C bewölkt
So, 15.07. 14:00 17.3° C leichter Regen
Ortszeit Temperatur Wetter
Di, 17.07. 11:00 23.5° C wolkig
Di, 17.07. 10:50 23.5° C bewölkt
Di, 17.07. 10:40 23.1° C bewölkt
Di, 17.07. 10:30 23.1° C wolkig
Di, 17.07. 10:20 23.1° C wolkig
Di, 17.07. 10:10 22.6° C wolkig
Di, 17.07. 10:00 21.7° C leicht bewölkt
Di, 17.07. 9:30 21.0° C leicht bewölkt
Di, 17.07. 9:00 19.4° C fast wolkenlos
Di, 17.07. 8:30 17.3° C fast wolkenlos
Di, 17.07. 8:00 16.6° C leicht bewölkt
Ortszeit Relative Feuchte Sichtweite
Di, 17.07. 8:00 84% 16 km
Di, 17.07. 2:00 99% 5.0 km
Mo, 16.07. 20:00 60% 40 km
Mo, 16.07. 14:00 57% 35 km
Mo, 16.07. 8:00 86% 22 km
Mo, 16.07. 2:00 96% 15 km
So, 15.07. 20:00 58% 45 km
So, 15.07. 14:00 83% 17 km
Ortszeit Relative Feuchte Sichtweite
Di, 17.07. 11:00 49% 40 km
Di, 17.07. 10:50 49% -
Di, 17.07. 10:40 53% -
Di, 17.07. 10:30 56% 40 km
Di, 17.07. 10:20 56% -
Di, 17.07. 10:10 55% -
Di, 17.07. 10:00 60% 16 km
Di, 17.07. 9:30 62% 30 km
Di, 17.07. 9:00 73% 22 km
Di, 17.07. 8:30 80% 14 km
Di, 17.07. 8:00 84% 16 km
Ortszeit Niederschlagsmenge Niederschlagsart
Di, 17.07. 8:00 0.0 l/m2 in 12 Std. -
Di, 17.07. 2:00 0.0 l/m2 in 6 Std. -
Mo, 16.07. 20:00 0.1 l/m2 in 12 Std. Regen
Mo, 16.07. 14:00 0.0 l/m2 in 6 Std. -
Mo, 16.07. 8:00 0.1 l/m2 in 12 Std. Regen
Mo, 16.07. 2:00 0.0 l/m2 in 6 Std. -
So, 15.07. 20:00 6 l/m2 in 12 Std. Regen
So, 15.07. 14:00 6 l/m2 in 6 Std. Regenschauer
Ortszeit Niederschlagsmenge Niederschlagsart
Di, 17.07. 11:00 0.0 l/m2 in 1 Std. -
Di, 17.07. 10:50 keine Meldung -
Di, 17.07. 10:40 keine Meldung -
Di, 17.07. 10:30 0.0 l/m2 in 1 Std. -
Di, 17.07. 10:20 keine Meldung -
Di, 17.07. 10:10 keine Meldung -
Di, 17.07. 10:00 0.0 l/m2 in 1 Std. -
Di, 17.07. 9:30 0.0 l/m2 in 1 Std. -
Di, 17.07. 9:00 0.0 l/m2 in 1 Std. -
Di, 17.07. 8:30 0.0 l/m2 in 1 Std. -
Di, 17.07. 8:00 0.0 l/m2 in 1 Std. -
Ortszeit Stärke Spitze Richtung
km/h Bft. km/h Grad Sektor
Di, 17.07. 8:00 4 1 7 180° S
Di, 17.07. 2:00 4 1 11 200° S
Mo, 16.07. 20:00 9 2 19 80° O
Mo, 16.07. 14:00 7 2 14 80° O
Mo, 16.07. 8:00 4 1 14 130° SO
Mo, 16.07. 2:00 0 0 11 - -
So, 15.07. 20:00 6 1 28 330° NW
So, 15.07. 14:00 7 2 36 200° S
Ortszeit Stärke Spitze Richtung
km/h Bft. km/h Grad Sektor
Di, 17.07. 11:00 11 2 18 290° W
Di, 17.07. 10:50 11 2 - 290° W
Di, 17.07. 10:40 9 2 - 290° W
Di, 17.07. 10:30 7 2 14 260° W
Di, 17.07. 10:20 7 2 - 260° W
Di, 17.07. 10:10 9 2 - 280° W
Di, 17.07. 10:00 11 2 18 290° W
Di, 17.07. 9:30 6 1 11 240° SW
Di, 17.07. 9:00 4 1 7 230° SW
Di, 17.07. 8:30 4 1 7 190° S
Di, 17.07. 8:00 4 1 7 180° S
Ortszeit Untergrenze Bedeckung Gattung
total tief tief mittel hoch
Di, 17.07. 8:00 9000 m 7/8 0/8 - - -
Di, 17.07. 2:00 8100 m 7/8 0/8 - - -
Mo, 16.07. 20:00 3000 m 6/8 6/8 - - -
Mo, 16.07. 14:00 1500 m 3/8 1/8 - - -
Mo, 16.07. 8:00 3300 m 8/8 8/8 - - -
Mo, 16.07. 2:00 3000 m 8/8 8/8 - - -
So, 15.07. 20:00 3900 m 8/8 6/8 - - -
So, 15.07. 14:00 2400 m 7/8 7/8 - - -
Ortszeit Bedeckungsgrad in Achtel und Wolkenuntergrenze
Di, 17.07. 11:00 6(2700m) 7(8400m) 8(9000m)
Di, 17.07. 10:50 6(2700m) 7(8400m) 8(9000m)
Di, 17.07. 10:40 5(2700m) 5(8400m) 8(9000m)
Di, 17.07. 10:30 1(3000m) 7(9000m) 7(9000m)
Di, 17.07. 10:20 1(3000m) 2(8400m) 7(9000m)
Di, 17.07. 10:10 2(8400m) 7(9000m)
Di, 17.07. 10:00 3(8400m) 6(9000m) 8(9000m)
Di, 17.07. 9:30 3(8700m)
Di, 17.07. 9:00 1(9000m)
Di, 17.07. 8:30 2(9000m)
Di, 17.07. 8:00 7(9000m)
Ortszeit Luftdruck NN (hPa) Tendenz (hPa in 3 Std.)
Di, 17.07. 8:00 1015 + 1,0
Di, 17.07. 2:00 1015 + 0,4
Mo, 16.07. 20:00 1011 - 0,3
Mo, 16.07. 14:00 1013 - 1,4
Mo, 16.07. 8:00 1015 - 0,5
Mo, 16.07. 2:00 1016 - 0,2
So, 15.07. 20:00 1014 - 0,9
So, 15.07. 14:00 1016 - 0,2
Ortszeit Luftdruck NN (hPa) Tendenz (hPa in 3 Std.)
Di, 17.07. 11:00 1014 + 0,4
Di, 17.07. 10:50 1014 keine Meldung
Di, 17.07. 10:40 1014 keine Meldung
Di, 17.07. 10:30 1014 + 0,3
Di, 17.07. 10:20 1014 keine Meldung
Di, 17.07. 10:10 1014 keine Meldung
Di, 17.07. 10:00 1014 + 0,4
Di, 17.07. 9:30 1014 + 0,5
Di, 17.07. 9:00 1014 + 0,6
Di, 17.07. 8:30 1015 + 0,7
Di, 17.07. 8:00 1015 + 1,0
Ortszeit Schneehöhe (cm)
Di, 17.07. 8:00 -
Di, 17.07. 2:00 -
Mo, 16.07. 20:00 -
Mo, 16.07. 14:00 -
Mo, 16.07. 8:00 -
Mo, 16.07. 2:00 -
So, 15.07. 20:00 -
So, 15.07. 14:00 -
Ortszeit Schneehöhe (cm)
Di, 17.07. 11:00 -
Di, 17.07. 10:50 -
Di, 17.07. 10:40 -
Di, 17.07. 10:30 -
Di, 17.07. 10:20 -
Di, 17.07. 10:10 -
Di, 17.07. 10:00 -
Di, 17.07. 9:30 -
Di, 17.07. 9:00 -
Di, 17.07. 8:30 -
Di, 17.07. 8:00 -
Link zu dieser Seite / Seite empfehlen

Das Wetter in ...